createdAt,value
2018-04-14T00:00:37.991Z,0
2018-04-14T00:01:48.129Z,0
2018-04-14T00:02:58.328Z,0
2018-04-14T00:04:08.482Z,0
2018-04-14T00:05:18.853Z,0
2018-04-14T00:06:29.040Z,0
2018-04-14T00:07:38.974Z,0
2018-04-14T00:08:49.153Z,0
2018-04-14T00:09:59.336Z,0
2018-04-14T00:11:09.474Z,0
2018-04-14T00:12:19.651Z,0
2018-04-14T00:13:29.832Z,0
2018-04-14T00:14:40.107Z,0
2018-04-14T00:15:50.456Z,0
2018-04-14T00:17:00.615Z,0
2018-04-14T00:18:10.511Z,0
2018-04-14T00:19:20.664Z,0
2018-04-14T00:20:30.858Z,0
2018-04-14T00:21:41.022Z,0
2018-04-14T00:22:51.209Z,0
2018-04-14T00:24:01.379Z,0
2018-04-14T00:25:11.531Z,0
2018-04-14T00:26:21.791Z,0
2018-04-14T00:27:32.017Z,0
2018-04-14T00:28:42.181Z,0
2018-04-14T00:29:52.303Z,0
2018-04-14T00:31:02.431Z,0
2018-04-14T00:32:12.578Z,0
2018-04-14T00:33:22.727Z,0
2018-04-14T00:34:32.877Z,0
2018-04-14T00:35:43.096Z,0
2018-04-14T00:36:53.309Z,0
2018-04-14T00:38:03.497Z,0
2018-04-14T00:39:13.676Z,0
2018-04-14T00:40:23.835Z,0
2018-04-14T00:41:33.998Z,0
2018-04-14T00:42:44.154Z,0
2018-04-14T00:43:54.318Z,0
2018-04-14T00:45:04.467Z,0
2018-04-14T00:46:14.657Z,0
2018-04-14T00:47:24.858Z,0
2018-04-14T00:48:35.179Z,0
2018-04-14T00:49:45.339Z,0
2018-04-14T00:50:55.494Z,0
2018-04-14T00:52:05.291Z,0
2018-04-14T00:53:15.458Z,0
2018-04-14T00:54:25.633Z,0
2018-04-14T00:55:35.877Z,0
2018-04-14T00:56:46.136Z,0
2018-04-14T00:57:56.386Z,0
2018-04-14T00:59:06.585Z,0
2018-04-14T01:00:16.915Z,0
2018-04-14T01:01:27.077Z,0
2018-04-14T01:02:37.311Z,0
2018-04-14T01:03:47.461Z,0
2018-04-14T01:04:57.683Z,0
2018-04-14T01:06:07.911Z,0
2018-04-14T01:07:18.068Z,0
2018-04-14T01:08:28.352Z,0
2018-04-14T01:09:38.675Z,0
2018-04-14T01:10:48.874Z,0
2018-04-14T01:11:59.078Z,0
2018-04-14T01:13:09.244Z,0
2018-04-14T01:14:19.467Z,0
2018-04-14T01:15:29.677Z,0
2018-04-14T01:16:39.575Z,0
2018-04-14T01:17:49.697Z,0
2018-04-14T01:18:59.976Z,0
2018-04-14T01:20:10.120Z,0
2018-04-14T01:21:20.278Z,0
2018-04-14T01:22:30.453Z,0
2018-04-14T01:23:40.621Z,0
2018-04-14T01:24:50.738Z,0
2018-04-14T01:26:00.897Z,0
2018-04-14T01:27:11.025Z,0
2018-04-14T01:28:21.187Z,0
2018-04-14T01:29:31.385Z,0
2018-04-14T01:30:41.539Z,0
2018-04-14T01:31:51.729Z,0
2018-04-14T01:33:01.965Z,0
2018-04-14T01:34:12.152Z,0
2018-04-14T01:35:22.626Z,0
2018-04-14T01:36:32.787Z,0
2018-04-14T01:37:42.946Z,0
2018-04-14T01:38:53.094Z,0
2018-04-14T01:40:03.075Z,0
2018-04-14T01:41:13.227Z,0
2018-04-14T01:42:23.364Z,0
2018-04-14T01:43:33.574Z,0
2018-04-14T01:44:43.751Z,0
2018-04-14T01:45:53.970Z,0
2018-04-14T01:47:04.284Z,0
2018-04-14T01:48:14.430Z,0
2018-04-14T01:49:24.298Z,0
2018-04-14T01:50:34.525Z,0
2018-04-14T01:51:44.695Z,0
2018-04-14T01:52:54.846Z,0
2018-04-14T01:54:05.043Z,0
2018-04-14T01:55:15.270Z,0
2018-04-14T01:56:25.519Z,0
2018-04-14T01:57:35.704Z,0
2018-04-14T01:58:45.950Z,0
2018-04-14T01:59:56.181Z,0
2018-04-14T02:01:06.432Z,0
2018-04-14T02:02:16.624Z,0
2018-04-14T02:03:26.937Z,0
2018-04-14T02:04:37.107Z,0
2018-04-14T02:05:47.275Z,0
2018-04-14T02:06:57.498Z,0
2018-04-14T02:08:07.753Z,0
2018-04-14T02:09:17.886Z,0
2018-04-14T02:10:28.153Z,0
2018-04-14T02:11:38.299Z,0
2018-04-14T02:12:48.423Z,0
2018-04-14T02:13:58.582Z,0
2018-04-14T02:15:08.730Z,0
2018-04-14T02:16:18.884Z,0
2018-04-14T02:17:29.058Z,0
2018-04-14T02:18:39.279Z,0
2018-04-14T02:19:49.429Z,0
2018-04-14T02:20:59.613Z,0
2018-04-14T02:22:09.802Z,0
2018-04-14T02:23:19.964Z,0
2018-04-14T02:24:30.127Z,0
2018-04-14T02:25:40.256Z,0
2018-04-14T02:26:50.384Z,0
2018-04-14T02:28:00.268Z,0
2018-04-14T02:29:10.428Z,0
2018-04-14T02:30:20.566Z,0
2018-04-14T02:31:30.477Z,0
2018-04-14T02:32:40.619Z,0
2018-04-14T02:33:50.758Z,0
2018-04-14T02:35:00.943Z,0
2018-04-14T02:36:11.149Z,0
2018-04-14T02:37:21.448Z,0
2018-04-14T02:38:31.614Z,0
2018-04-14T02:39:41.841Z,0
2018-04-14T02:40:52.036Z,0
2018-04-14T02:42:02.200Z,0
2018-04-14T02:43:12.390Z,0
2018-04-14T02:44:22.101Z,0
2018-04-14T02:45:32.399Z,0
2018-04-14T02:46:42.555Z,0
2018-04-14T02:47:52.744Z,0
2018-04-14T02:49:02.880Z,0
2018-04-14T02:50:13.017Z,0
2018-04-14T02:51:23.193Z,0
2018-04-14T02:52:33.076Z,0
2018-04-14T02:53:43.268Z,0
2018-04-14T02:54:53.425Z,0
2018-04-14T02:56:03.574Z,0
2018-04-14T02:57:13.744Z,0
2018-04-14T02:58:23.614Z,0
2018-04-14T02:59:33.793Z,0
2018-04-14T03:00:43.578Z,0
2018-04-14T03:01:53.719Z,0
2018-04-14T03:03:03.876Z,0
2018-04-14T03:04:14.087Z,0
2018-04-14T03:05:23.966Z,0
2018-04-14T03:06:34.138Z,0
2018-04-14T03:07:44.291Z,0
2018-04-14T03:08:54.428Z,0
2018-04-14T03:10:04.324Z,0
2018-04-14T03:11:14.481Z,0
2018-04-14T03:12:24.611Z,0
2018-04-14T03:13:34.763Z,0
2018-04-14T03:14:44.945Z,0
2018-04-14T03:15:55.101Z,0
2018-04-14T03:17:05.233Z,0
2018-04-14T03:18:15.411Z,0
2018-04-14T03:19:25.553Z,0
2018-04-14T03:20:35.699Z,0
2018-04-14T03:21:45.875Z,0
2018-04-14T03:22:55.855Z,0
2018-04-14T03:24:05.984Z,0
2018-04-14T03:25:16.135Z,0
2018-04-14T03:26:26.310Z,0
2018-04-14T03:27:36.525Z,0
2018-04-14T03:28:46.686Z,0
2018-04-14T03:29:56.847Z,0
2018-04-14T03:31:06.987Z,0
2018-04-14T03:32:16.950Z,0
2018-04-14T03:33:27.221Z,0
2018-04-14T03:34:37.369Z,0
2018-04-14T03:35:47.573Z,0
2018-04-14T03:36:57.754Z,0
2018-04-14T03:38:07.954Z,0
2018-04-14T03:39:18.210Z,0
2018-04-14T03:40:28.401Z,0
2018-04-14T03:41:38.579Z,0
2018-04-14T03:42:48.690Z,0
2018-04-14T03:43:58.570Z,0
2018-04-14T03:45:08.488Z,0
2018-04-14T03:46:18.608Z,0
2018-04-14T03:47:28.776Z,0
2018-04-14T03:48:38.600Z,0
2018-04-14T03:49:48.739Z,0
2018-04-14T03:50:58.867Z,0
2018-04-14T03:52:09.027Z,0
2018-04-14T03:53:19.155Z,0
2018-04-14T03:54:29.026Z,0
2018-04-14T03:55:39.167Z,0
2018-04-14T03:56:49.300Z,0
2018-04-14T03:57:59.498Z,0
2018-04-14T03:59:09.739Z,0
2018-04-14T04:00:20.008Z,0
2018-04-14T04:01:30.147Z,0
2018-04-14T04:02:40.330Z,0
2018-04-14T04:03:50.481Z,0
2018-04-14T04:05:00.257Z,0
2018-04-14T04:06:10.407Z,0
2018-04-14T04:07:20.317Z,0
2018-04-14T04:08:30.450Z,0
2018-04-14T04:09:40.628Z,0
2018-04-14T04:10:50.830Z,0
2018-04-14T04:12:00.985Z,0
2018-04-14T04:13:11.125Z,0
2018-04-14T04:14:21.282Z,0
2018-04-14T04:15:31.450Z,0
2018-04-14T04:16:41.619Z,0
2018-04-14T04:17:52.751Z,0
2018-04-14T04:19:02.867Z,0
2018-04-14T04:20:13.043Z,0
2018-04-14T04:21:23.294Z,0
2018-04-14T04:22:33.548Z,0
2018-04-14T04:23:43.808Z,0
2018-04-14T04:24:53.962Z,0
2018-04-14T04:26:04.128Z,5
2018-04-14T04:27:14.334Z,5
2018-04-14T04:28:24.653Z,5
2018-04-14T04:29:34.848Z,5
2018-04-14T04:30:44.993Z,5
2018-04-14T04:31:55.129Z,5
2018-04-14T04:33:05.279Z,10
2018-04-14T04:34:15.414Z,10
2018-04-14T04:35:25.611Z,10
2018-04-14T04:36:35.738Z,10
2018-04-14T04:37:46.010Z,15
2018-04-14T04:38:56.190Z,15
2018-04-14T04:40:06.353Z,15
2018-04-14T04:41:16.603Z,15
2018-04-14T04:42:26.751Z,20
2018-04-14T04:43:36.897Z,20
2018-04-14T04:44:46.819Z,20
2018-04-14T04:45:57.008Z,20
2018-04-14T04:47:07.367Z,25
2018-04-14T04:48:17.534Z,25
2018-04-14T04:49:27.737Z,25
2018-04-14T04:50:37.886Z,25
2018-04-14T04:51:48.070Z,30
2018-04-14T04:52:58.335Z,30
2018-04-14T04:54:08.565Z,30
2018-04-14T04:55:18.765Z,30
2018-04-14T04:56:29.175Z,35
2018-04-14T04:57:39.349Z,35
2018-04-14T04:58:49.567Z,35
2018-04-14T04:59:59.459Z,35
2018-04-14T05:01:09.606Z,40
2018-04-14T05:02:19.881Z,40
2018-04-14T05:03:30.005Z,40
2018-04-14T05:04:40.162Z,40
2018-04-14T05:05:50.314Z,40
2018-04-14T05:07:00.472Z,45
2018-04-14T05:08:10.612Z,45
2018-04-14T05:09:20.784Z,45
2018-04-14T05:10:30.955Z,45
2018-04-14T05:11:41.138Z,45
2018-04-14T05:12:51.096Z,40
2018-04-14T05:14:01.595Z,45
2018-04-14T05:15:11.716Z,45
2018-04-14T05:16:21.888Z,50
2018-04-14T05:17:32.099Z,55
2018-04-14T05:18:42.263Z,55
2018-04-14T05:19:52.420Z,60
2018-04-14T05:21:02.640Z,60
2018-04-14T05:22:12.574Z,60
2018-04-14T05:23:22.743Z,60
2018-04-14T05:24:32.629Z,60
2018-04-14T05:25:42.772Z,65
2018-04-14T05:26:52.929Z,65
2018-04-14T05:28:03.110Z,65
2018-04-14T05:29:13.347Z,65
2018-04-14T05:30:23.594Z,70
2018-04-14T05:31:33.763Z,75
2018-04-14T05:32:44.895Z,80
2018-04-14T05:33:55.033Z,90
2018-04-14T05:35:05.229Z,95
2018-04-14T05:36:15.686Z,100
2018-04-14T05:37:25.884Z,100
2018-04-14T05:38:35.791Z,100
2018-04-14T05:39:45.956Z,105
2018-04-14T05:40:56.147Z,110
2018-04-14T05:42:06.305Z,120
2018-04-14T05:43:16.449Z,130
2018-04-14T05:44:26.609Z,140
2018-04-14T05:45:36.791Z,140
2018-04-14T05:46:47.016Z,140
2018-04-14T05:47:57.168Z,140
2018-04-14T05:49:07.309Z,140
2018-04-14T05:50:17.501Z,140
2018-04-14T05:51:27.640Z,145
2018-04-14T05:52:37.847Z,140
2018-04-14T05:53:48.049Z,135
2018-04-14T05:54:58.235Z,135
2018-04-14T05:56:08.451Z,135
2018-04-14T05:57:18.675Z,135
2018-04-14T05:58:28.942Z,130
2018-04-14T05:59:39.092Z,125
2018-04-14T06:00:49.287Z,125
2018-04-14T06:01:59.332Z,120
2018-04-14T06:03:09.270Z,115
2018-04-14T06:04:19.420Z,115
2018-04-14T06:05:29.339Z,115
2018-04-14T06:06:39.515Z,110
2018-04-14T06:07:49.706Z,110
2018-04-14T06:08:59.953Z,110
2018-04-14T06:10:10.170Z,105
2018-04-14T06:11:20.345Z,100
2018-04-14T06:12:30.601Z,90
2018-04-14T06:13:40.825Z,75
2018-04-14T06:14:50.982Z,75
2018-04-14T06:16:01.122Z,75
2018-04-14T06:17:11.385Z,75
2018-04-14T06:18:21.565Z,75
2018-04-14T06:19:31.928Z,80
2018-04-14T06:20:42.152Z,85
2018-04-14T06:21:52.358Z,90
2018-04-14T06:23:02.202Z,90
2018-04-14T06:24:12.384Z,95
2018-04-14T06:25:22.575Z,95
2018-04-14T06:26:32.367Z,105
2018-04-14T06:27:42.538Z,105
2018-04-14T06:28:52.770Z,95
2018-04-14T06:30:03.990Z,95
2018-04-14T06:31:14.176Z,80
2018-04-14T06:32:24.338Z,75
2018-04-14T06:33:34.530Z,70
2018-04-14T06:34:44.757Z,70
2018-04-14T06:35:54.982Z,70
2018-04-14T06:37:05.204Z,75
2018-04-14T06:38:15.385Z,75
2018-04-14T06:39:25.594Z,75
2018-04-14T06:40:35.936Z,75
2018-04-14T06:41:46.190Z,75
2018-04-14T06:42:56.435Z,70
2018-04-14T06:44:06.665Z,70
2018-04-14T06:45:16.833Z,65
2018-04-14T06:46:27.106Z,65
2018-04-14T06:47:36.895Z,65
2018-04-14T06:48:47.038Z,65
2018-04-14T06:49:57.178Z,60
2018-04-14T06:51:07.383Z,65
2018-04-14T06:52:17.533Z,70
2018-04-14T06:53:27.672Z,75
2018-04-14T06:54:37.832Z,80
2018-04-14T06:55:47.886Z,80
2018-04-14T06:56:57.786Z,75
2018-04-14T06:58:07.941Z,80
2018-04-14T06:59:18.124Z,80
2018-04-14T07:00:28.291Z,75
2018-04-14T07:01:38.463Z,75
2018-04-14T07:02:48.615Z,75
2018-04-14T07:03:58.529Z,70
2018-04-14T07:05:08.686Z,75
2018-04-14T07:06:18.894Z,70
2018-04-14T07:07:29.074Z,65
2018-04-14T07:08:39.220Z,60
2018-04-14T07:09:49.444Z,65
2018-04-14T07:10:59.683Z,70
2018-04-14T07:12:09.867Z,75
2018-04-14T07:13:20.225Z,85
2018-04-14T07:14:30.439Z,100
2018-04-14T07:15:40.733Z,105
2018-04-14T07:16:50.883Z,110
2018-04-14T07:18:01.180Z,110
2018-04-14T07:19:11.408Z,110
2018-04-14T07:20:21.553Z,110
2018-04-14T07:21:31.784Z,120
2018-04-14T07:22:42.012Z,120
2018-04-14T07:23:52.218Z,130
2018-04-14T07:25:02.463Z,135
2018-04-14T07:26:12.652Z,130
2018-04-14T07:27:22.574Z,130
2018-04-14T07:28:32.748Z,130
2018-04-14T07:29:42.906Z,115
2018-04-14T07:30:53.080Z,110
2018-04-14T07:32:03.091Z,110
2018-04-14T07:33:13.400Z,110
2018-04-14T07:34:23.573Z,115
2018-04-14T07:35:33.789Z,120
2018-04-14T07:36:43.938Z,120
2018-04-14T07:37:53.737Z,120
2018-04-14T07:39:03.754Z,135
2018-04-14T07:40:13.979Z,145
2018-04-14T07:41:24.125Z,155
2018-04-14T07:42:33.696Z,155
2018-04-14T07:43:44.008Z,155
2018-04-14T07:44:55.237Z,175
2018-04-14T07:46:05.407Z,180
2018-04-14T07:47:15.618Z,175
2018-04-14T07:48:25.872Z,165
2018-04-14T07:49:36.073Z,155
2018-04-14T07:50:46.349Z,150
2018-04-14T07:51:56.581Z,180
2018-04-14T07:53:06.745Z,215
2018-04-14T07:54:16.999Z,230
2018-04-14T07:55:27.242Z,245
2018-04-14T07:56:37.450Z,250
2018-04-14T07:57:47.936Z,245
2018-04-14T07:58:58.125Z,260
2018-04-14T08:00:08.338Z,270
2018-04-14T08:01:18.530Z,295
2018-04-14T08:02:28.709Z,325
2018-04-14T08:03:38.893Z,350
2018-04-14T08:04:49.108Z,365
2018-04-14T08:05:59.269Z,380
2018-04-14T08:07:09.479Z,380
2018-04-14T08:08:19.694Z,380
2018-04-14T08:09:29.838Z,370
2018-04-14T08:10:40.070Z,355
2018-04-14T08:11:52.603Z,275
2018-04-14T08:13:02.780Z,240
2018-04-14T08:14:12.945Z,240
2018-04-14T08:15:23.090Z,280
2018-04-14T08:16:33.295Z,260
2018-04-14T08:17:43.462Z,255
2018-04-14T08:18:53.771Z,260
2018-04-14T08:20:03.928Z,240
2018-04-14T08:21:14.117Z,210
2018-04-14T08:22:24.337Z,215
2018-04-14T08:23:34.183Z,260
2018-04-14T08:24:44.420Z,255
2018-04-14T08:25:54.584Z,260
2018-04-14T08:27:07.108Z,290
2018-04-14T08:28:17.298Z,280
2018-04-14T08:29:27.697Z,290
2018-04-14T08:30:37.646Z,270
2018-04-14T08:31:47.912Z,305
2018-04-14T08:32:58.292Z,350
2018-04-14T08:34:08.464Z,330
2018-04-14T08:35:18.660Z,400
2018-04-14T08:36:28.903Z,535
2018-04-14T08:37:39.260Z,710
2018-04-14T08:38:49.495Z,855
2018-04-14T08:39:59.648Z,650
2018-04-14T08:41:09.824Z,595
2018-04-14T08:42:19.986Z,590
2018-04-14T08:43:30.292Z,515
2018-04-14T08:44:40.467Z,445
2018-04-14T08:45:50.720Z,470
2018-04-14T08:47:00.913Z,440
2018-04-14T08:48:11.129Z,450
2018-04-14T08:49:21.398Z,455
2018-04-14T08:50:31.588Z,420
2018-04-14T08:51:41.758Z,390
2018-04-14T08:52:51.960Z,375
2018-04-14T08:54:02.330Z,380
2018-04-14T08:55:12.528Z,385
2018-04-14T08:56:22.852Z,330
2018-04-14T08:57:33.039Z,315
2018-04-14T08:58:42.980Z,330
2018-04-14T08:59:53.292Z,335
2018-04-14T09:01:03.493Z,315
2018-04-14T09:02:13.744Z,295
2018-04-14T09:03:23.971Z,290
2018-04-14T09:04:34.271Z,300
2018-04-14T09:05:44.238Z,310
2018-04-14T09:06:54.430Z,280
2018-04-14T09:08:04.592Z,255
2018-04-14T09:09:15.093Z,245
2018-04-14T09:10:25.263Z,245
2018-04-14T09:11:35.572Z,245
2018-04-14T09:12:45.747Z,230
2018-04-14T09:13:55.930Z,215
2018-04-14T09:15:06.153Z,220
2018-04-14T09:16:16.573Z,205
2018-04-14T09:17:26.717Z,185
2018-04-14T09:18:36.890Z,160
2018-04-14T09:19:47.066Z,155
2018-04-14T09:20:57.278Z,145
2018-04-14T09:22:07.488Z,120
2018-04-14T09:23:17.740Z,120
2018-04-14T09:24:27.992Z,115
2018-04-14T09:25:38.182Z,110
2018-04-14T09:26:48.406Z,115
2018-04-14T09:27:58.747Z,115
2018-04-14T09:29:08.943Z,120
2018-04-14T09:30:19.142Z,120
2018-04-14T09:31:29.407Z,125
2018-04-14T09:32:39.617Z,125
2018-04-14T09:33:49.848Z,115
2018-04-14T09:34:59.976Z,105
2018-04-14T09:36:09.928Z,105
2018-04-14T09:37:20.094Z,125
2018-04-14T09:38:30.288Z,130
2018-04-14T09:39:40.442Z,105
2018-04-14T09:40:50.633Z,95
2018-04-14T09:42:00.829Z,100
2018-04-14T09:43:11.001Z,105
2018-04-14T09:44:21.223Z,100
2018-04-14T09:45:31.506Z,100
2018-04-14T09:46:41.724Z,95
2018-04-14T09:47:51.970Z,75
2018-04-14T09:49:02.141Z,70
2018-04-14T09:50:12.136Z,65
2018-04-14T09:51:22.335Z,60
2018-04-14T09:52:32.319Z,55
2018-04-14T09:53:42.681Z,55
2018-04-14T09:54:52.850Z,55
2018-04-14T09:56:02.822Z,65
2018-04-14T09:57:13.003Z,80
2018-04-14T09:58:23.160Z,70
2018-04-14T09:59:33.338Z,60
2018-04-14T10:00:43.555Z,65
2018-04-14T10:01:53.767Z,70
2018-04-14T10:03:04.169Z,95
2018-04-14T10:04:14.362Z,100
2018-04-14T10:05:24.559Z,105
2018-04-14T10:06:34.742Z,100
2018-04-14T10:07:44.967Z,95
2018-04-14T10:08:55.160Z,115
2018-04-14T10:10:05.325Z,140
2018-04-14T10:11:15.569Z,170
2018-04-14T10:12:25.762Z,215
2018-04-14T10:13:35.933Z,275
2018-04-14T10:14:46.116Z,365
2018-04-14T10:15:56.300Z,440
2018-04-14T10:17:06.474Z,495
2018-04-14T10:18:17.643Z,530
2018-04-14T10:19:27.836Z,555
2018-04-14T10:20:38.185Z,660
2018-04-14T10:21:48.383Z,750
2018-04-14T10:22:58.551Z,1935
2018-04-14T10:24:08.803Z,1015
2018-04-14T10:25:18.997Z,1165
2018-04-14T10:26:29.193Z,1055
2018-04-14T10:27:39.456Z,555
2018-04-14T10:28:49.643Z,495
2018-04-14T10:29:59.856Z,305
2018-04-14T10:31:10.074Z,250
2018-04-14T10:32:20.388Z,210
2018-04-14T10:33:30.557Z,200
2018-04-14T10:34:40.768Z,195
2018-04-14T10:35:51.000Z,225
2018-04-14T10:37:01.197Z,325
2018-04-14T10:38:11.638Z,605
2018-04-14T10:39:21.904Z,505
2018-04-14T10:40:32.084Z,575
2018-04-14T10:41:42.263Z,650
2018-04-14T10:42:52.455Z,860
2018-04-14T10:44:02.895Z,2230
2018-04-14T10:45:13.086Z,2065
2018-04-14T10:46:23.278Z,2420
2018-04-14T10:47:33.463Z,1205
2018-04-14T10:48:43.655Z,2630
2018-04-14T10:49:53.856Z,2460
2018-04-14T10:51:04.035Z,2475
2018-04-14T10:52:14.245Z,1685
2018-04-14T10:53:24.484Z,2415
2018-04-14T10:54:34.716Z,2475
2018-04-14T10:55:44.694Z,2570
2018-04-14T10:56:54.888Z,2615
2018-04-14T10:58:05.213Z,2645
2018-04-14T10:59:15.551Z,2575
2018-04-14T11:00:29.630Z,2735
2018-04-14T11:01:39.861Z,2855
2018-04-14T11:02:50.100Z,2855
2018-04-14T11:04:00.462Z,2865
2018-04-14T11:05:10.631Z,2745
2018-04-14T11:06:20.805Z,2455
2018-04-14T11:07:31.033Z,2370
2018-04-14T11:08:41.157Z,2450
2018-04-14T11:09:51.404Z,2340
2018-04-14T11:11:01.846Z,2570
2018-04-14T11:12:12.020Z,2580
2018-04-14T11:13:22.212Z,2720
2018-04-14T11:14:32.284Z,2855
2018-04-14T11:15:42.541Z,2705
2018-04-14T11:16:52.828Z,2835
2018-04-14T11:18:03.150Z,2685
2018-04-14T11:19:13.094Z,2860
2018-04-14T11:20:24.361Z,2865
2018-04-14T11:21:34.575Z,2845
2018-04-14T11:22:44.777Z,2915
2018-04-14T11:23:54.972Z,2925
2018-04-14T11:25:05.215Z,2915
2018-04-14T11:26:15.513Z,3025
2018-04-14T11:27:25.743Z,3145
2018-04-14T11:28:35.962Z,1610
2018-04-14T11:29:46.173Z,3180
2018-04-14T11:30:56.375Z,3095
2018-04-14T11:32:06.570Z,880
2018-04-14T11:33:16.855Z,1335
2018-04-14T11:34:28.046Z,2310
2018-04-14T11:35:38.304Z,935
2018-04-14T11:36:48.589Z,1685
2018-04-14T11:37:58.770Z,1180
2018-04-14T11:39:08.945Z,2680
2018-04-14T11:40:19.170Z,2570
2018-04-14T11:41:29.336Z,2400
2018-04-14T11:42:39.557Z,2435
2018-04-14T11:43:49.820Z,2555
2018-04-14T11:45:00.046Z,2610
2018-04-14T11:46:10.265Z,2655
2018-04-14T11:47:20.470Z,2395
2018-04-14T11:48:30.695Z,2665
2018-04-14T11:49:40.910Z,1050
2018-04-14T11:50:51.100Z,2665
2018-04-14T11:52:01.290Z,2560
2018-04-14T11:53:11.574Z,2755
2018-04-14T11:54:21.794Z,2880
2018-04-14T11:55:32.097Z,2890
2018-04-14T11:56:42.317Z,2390
2018-04-14T11:57:52.520Z,2255
2018-04-14T11:59:02.733Z,755
2018-04-14T12:00:12.960Z,1655
2018-04-14T12:01:23.259Z,2605
2018-04-14T12:02:33.662Z,760
2018-04-14T12:03:44.075Z,2465
2018-04-14T12:04:54.033Z,2585
2018-04-14T12:06:04.242Z,2535
2018-04-14T12:07:14.446Z,2565
2018-04-14T12:08:24.670Z,2625
2018-04-14T12:09:34.867Z,2735
2018-04-14T12:10:45.067Z,2805
2018-04-14T12:11:55.164Z,2820
2018-04-14T12:13:05.366Z,2755
2018-04-14T12:14:15.636Z,2745
2018-04-14T12:15:25.526Z,2600
2018-04-14T12:16:35.732Z,2620
2018-04-14T12:17:45.973Z,1970
2018-04-14T12:18:56.171Z,1830
2018-04-14T12:20:06.364Z,675
2018-04-14T12:21:16.596Z,510
2018-04-14T12:22:26.794Z,435
2018-04-14T12:23:36.997Z,875
2018-04-14T12:24:47.203Z,2675
2018-04-14T12:25:57.386Z,2715
2018-04-14T12:27:07.603Z,2660
2018-04-14T12:28:17.821Z,2375
2018-04-14T12:29:28.058Z,2480
2018-04-14T12:30:38.224Z,1150
2018-04-14T12:31:48.443Z,1625
2018-04-14T12:32:58.630Z,2440
2018-04-14T12:34:08.842Z,2220
2018-04-14T12:35:19.101Z,875
2018-04-14T12:36:29.341Z,810
2018-04-14T12:37:39.568Z,2250
2018-04-14T12:38:49.812Z,1620
2018-04-14T12:39:59.769Z,2500
2018-04-14T12:41:10.141Z,2260
2018-04-14T12:42:20.360Z,2240
2018-04-14T12:43:30.338Z,2295
2018-04-14T12:44:40.501Z,2355
2018-04-14T12:45:50.660Z,2415
2018-04-14T12:47:00.893Z,2530
2018-04-14T12:48:11.085Z,2500
2018-04-14T12:49:21.293Z,2545
2018-04-14T12:50:31.495Z,2490
2018-04-14T12:51:41.425Z,2400
2018-04-14T12:52:51.633Z,2450
2018-04-14T12:54:01.876Z,2445
2018-04-14T12:55:12.063Z,2440
2018-04-14T12:56:22.264Z,2465
2018-04-14T12:57:32.477Z,2395
2018-04-14T12:58:42.669Z,2355
2018-04-14T12:59:52.885Z,2340
2018-04-14T13:01:03.122Z,2370
2018-04-14T13:02:13.029Z,2405
2018-04-14T13:03:23.229Z,2475
2018-04-14T13:04:33.449Z,2480
2018-04-14T13:05:43.750Z,2565
2018-04-14T13:06:54.018Z,2545
2018-04-14T13:08:04.295Z,2430
2018-04-14T13:09:14.507Z,2395
2018-04-14T13:10:24.721Z,2310
2018-04-14T13:11:34.891Z,2325
2018-04-14T13:12:45.214Z,2330
2018-04-14T13:13:55.428Z,2355
2018-04-14T13:15:05.461Z,2440
2018-04-14T13:16:15.711Z,2440
2018-04-14T13:17:26.053Z,2410
2018-04-14T13:18:36.312Z,2415
2018-04-14T13:19:46.246Z,2420
2018-04-14T13:20:56.477Z,2425
2018-04-14T13:22:06.673Z,2345
2018-04-14T13:23:16.655Z,2290
2018-04-14T13:24:26.871Z,2190
2018-04-14T13:25:37.123Z,2145
2018-04-14T13:26:47.350Z,2155
2018-04-14T13:27:58.531Z,2245
2018-04-14T13:29:08.739Z,2295
2018-04-14T13:30:18.690Z,2325
2018-04-14T13:31:28.863Z,2250
2018-04-14T13:32:39.051Z,2155
2018-04-14T13:33:48.989Z,2020
2018-04-14T13:34:58.938Z,2040
2018-04-14T13:36:08.920Z,2045
2018-04-14T13:37:19.179Z,2115
2018-04-14T13:38:29.500Z,2180
2018-04-14T13:39:39.395Z,2215
2018-04-14T13:40:49.337Z,2165
2018-04-14T13:41:59.529Z,2105
2018-04-14T13:43:09.736Z,1935
2018-04-14T13:44:19.905Z,1915
2018-04-14T13:45:30.111Z,1915
2018-04-14T13:46:40.333Z,2065
2018-04-14T13:47:50.517Z,2170
2018-04-14T13:49:00.732Z,2280
2018-04-14T13:50:10.936Z,2205
2018-04-14T13:51:21.134Z,2215
2018-04-14T13:52:31.355Z,2170
2018-04-14T13:53:41.284Z,2195
2018-04-14T13:54:51.747Z,2195
2018-04-14T13:56:01.956Z,2195
2018-04-14T13:57:12.232Z,2025
2018-04-14T13:58:22.443Z,2115
2018-04-14T13:59:32.728Z,2040
2018-04-14T14:00:42.907Z,2010
2018-04-14T14:01:53.968Z,1885
2018-04-14T14:03:04.242Z,1845
2018-04-14T14:04:14.497Z,1815
2018-04-14T14:05:24.730Z,1925
2018-04-14T14:06:34.911Z,2020
2018-04-14T14:07:45.163Z,2105
2018-04-14T14:08:55.382Z,2030
2018-04-14T14:10:05.600Z,1955
2018-04-14T14:11:15.815Z,1840
2018-04-14T14:12:26.084Z,1830
2018-04-14T14:13:36.326Z,1785
2018-04-14T14:14:46.511Z,1840
2018-04-14T14:15:56.753Z,1905
2018-04-14T14:17:06.974Z,1815
2018-04-14T14:18:17.169Z,1665
2018-04-14T14:19:27.364Z,1585
2018-04-14T14:20:37.563Z,1450
2018-04-14T14:21:47.825Z,1585
2018-04-14T14:22:58.033Z,1630
2018-04-14T14:24:08.300Z,1690
2018-04-14T14:25:18.574Z,1675
2018-04-14T14:26:28.760Z,1530
2018-04-14T14:27:38.984Z,1385
2018-04-14T14:28:49.180Z,1635
2018-04-14T14:29:59.151Z,1685
2018-04-14T14:31:09.336Z,1620
2018-04-14T14:32:19.522Z,1575
2018-04-14T14:33:29.774Z,1450
2018-04-14T14:34:39.963Z,905
2018-04-14T14:35:49.904Z,630
2018-04-14T14:37:01.173Z,680
2018-04-14T14:38:11.390Z,860
2018-04-14T14:39:21.694Z,1365
2018-04-14T14:40:32.022Z,1225
2018-04-14T14:41:42.216Z,1400
2018-04-14T14:42:52.537Z,1345
2018-04-14T14:44:02.730Z,1495
2018-04-14T14:45:12.584Z,1180
2018-04-14T14:46:22.738Z,1085
2018-04-14T14:47:32.946Z,1010
2018-04-14T14:48:42.772Z,1255
2018-04-14T14:49:52.698Z,1250
2018-04-14T14:51:02.895Z,1235
2018-04-14T14:52:13.084Z,1310
2018-04-14T14:53:23.315Z,1380
2018-04-14T14:54:33.516Z,1465
2018-04-14T14:55:43.758Z,1460
2018-04-14T14:56:54.066Z,1420
2018-04-14T14:58:04.293Z,1415
2018-04-14T14:59:14.654Z,1400
2018-04-14T15:00:25.032Z,1345
2018-04-14T15:01:34.978Z,1295
2018-04-14T15:02:45.278Z,940
2018-04-14T15:03:55.454Z,1080
2018-04-14T15:05:05.858Z,1040
2018-04-14T15:06:15.785Z,1010
2018-04-14T15:07:26.029Z,950
2018-04-14T15:08:36.319Z,1010
2018-04-14T15:09:46.516Z,1030
2018-04-14T15:10:56.810Z,1110
2018-04-14T15:12:07.038Z,1090
2018-04-14T15:13:16.945Z,910
2018-04-14T15:14:27.211Z,910
2018-04-14T15:15:37.213Z,1045
2018-04-14T15:16:47.427Z,1110
2018-04-14T15:17:57.617Z,1045
2018-04-14T15:19:07.803Z,980
2018-04-14T15:20:18.039Z,1005
2018-04-14T15:21:28.084Z,1040
2018-04-14T15:22:38.345Z,1065
2018-04-14T15:23:48.674Z,1020
2018-04-14T15:24:58.860Z,985
2018-04-14T15:26:09.050Z,960
2018-04-14T15:27:19.269Z,935
2018-04-14T15:28:29.501Z,880
2018-04-14T15:29:39.672Z,835
2018-04-14T15:30:50.962Z,860
2018-04-14T15:32:01.239Z,850
2018-04-14T15:33:11.457Z,815
2018-04-14T15:34:21.648Z,805
2018-04-14T15:35:31.909Z,820
2018-04-14T15:36:42.185Z,800
2018-04-14T15:37:52.394Z,760
2018-04-14T15:39:02.656Z,735
2018-04-14T15:40:12.883Z,795
2018-04-14T15:41:23.048Z,760
2018-04-14T15:42:33.222Z,695
2018-04-14T15:43:43.422Z,640
2018-04-14T15:44:53.601Z,650
2018-04-14T15:46:03.804Z,655
2018-04-14T15:47:14.022Z,655
2018-04-14T15:48:25.186Z,625
2018-04-14T15:49:35.407Z,510
2018-04-14T15:50:45.654Z,410
2018-04-14T15:51:55.864Z,380
2018-04-14T15:53:06.104Z,400
2018-04-14T15:54:16.362Z,395
2018-04-14T15:55:26.558Z,340
2018-04-14T15:56:36.742Z,305
2018-04-14T15:57:46.924Z,230
2018-04-14T15:58:57.187Z,220
2018-04-14T16:00:07.346Z,230
2018-04-14T16:01:17.539Z,230
2018-04-14T16:02:27.823Z,250
2018-04-14T16:03:44.628Z,250
2018-04-14T16:04:55.227Z,265
2018-04-14T16:06:05.434Z,265
2018-04-14T16:07:15.609Z,245
2018-04-14T16:08:25.821Z,220
2018-04-14T16:09:35.655Z,225
2018-04-14T16:10:45.871Z,250
2018-04-14T16:11:55.801Z,285
2018-04-14T16:13:05.988Z,310
2018-04-14T16:14:16.162Z,295
2018-04-14T16:15:26.401Z,290
2018-04-14T16:16:36.692Z,280
2018-04-14T16:17:47.153Z,260
2018-04-14T16:18:57.344Z,250
2018-04-14T16:20:07.498Z,255
2018-04-14T16:21:17.684Z,275